sensor_id;sensor_type;location;lat;lon;timestamp;pressure;altitude;pressure_sealevel;temperature;humidity
58245;BME280;44550;43.864;25.986;2023-07-28T00:01:41;100946.03;;;19.31;100.00
58245;BME280;44550;43.864;25.986;2023-07-28T00:05:42;100949.41;;;19.36;100.00
58245;BME280;44550;43.864;25.986;2023-07-28T00:09:43;100956.63;;;19.31;100.00
58245;BME280;44550;43.864;25.986;2023-07-28T00:13:57;100948.13;;;19.18;100.00
58245;BME280;44550;43.864;25.986;2023-07-28T00:18:00;100951.78;;;19.12;100.00
58245;BME280;44550;43.864;25.986;2023-07-28T00:22:02;100958.22;;;19.02;99.23
58245;BME280;44550;43.864;25.986;2023-07-28T00:26:02;100959.63;;;18.81;99.06
58245;BME280;44550;43.864;25.986;2023-07-28T00:30:02;100957.06;;;18.76;98.75
58245;BME280;44550;43.864;25.986;2023-07-28T00:34:05;100964.53;;;18.96;98.05
58245;BME280;44550;43.864;25.986;2023-07-28T00:38:06;100966.09;;;19.05;93.82
58245;BME280;44550;43.864;25.986;2023-07-28T00:42:07;100927.91;;;18.78;92.94
58245;BME280;44550;43.864;25.986;2023-07-28T00:46:08;100966.91;;;19.09;93.06
58245;BME280;44550;43.864;25.986;2023-07-28T00:50:12;100969.81;;;18.98;90.80
58245;BME280;44550;43.864;25.986;2023-07-28T00:54:12;100976.19;;;18.89;91.24
58245;BME280;44550;43.864;25.986;2023-07-28T00:58:13;100979.78;;;18.88;92.53
58245;BME280;44550;43.864;25.986;2023-07-28T01:02:20;100990.78;;;18.68;94.09
58245;BME280;44550;43.864;25.986;2023-07-28T01:06:32;100966.59;;;18.45;95.64
58245;BME280;44550;43.864;25.986;2023-07-28T01:10:39;100970.50;;;18.28;95.50
58245;BME280;44550;43.864;25.986;2023-07-28T01:14:42;100990.75;;;18.29;95.47
58245;BME280;44550;43.864;25.986;2023-07-28T01:18:43;100984.72;;;18.23;94.51
58245;BME280;44550;43.864;25.986;2023-07-28T01:23:05;100977.69;;;18.22;93.67
58245;BME280;44550;43.864;25.986;2023-07-28T01:27:09;100936.28;;;18.18;92.34
58245;BME280;44550;43.864;25.986;2023-07-28T01:31:15;100951.84;;;18.33;91.40
58245;BME280;44550;43.864;25.986;2023-07-28T01:35:16;100988.16;;;18.68;90.85
58245;BME280;44550;43.864;25.986;2023-07-28T01:39:17;100966.19;;;18.63;90.00
58245;BME280;44550;43.864;25.986;2023-07-28T01:43:20;100992.94;;;18.91;88.53
58245;BME280;44550;43.864;25.986;2023-07-28T01:47:21;100986.34;;;18.72;89.05
58245;BME280;44550;43.864;25.986;2023-07-28T01:51:24;101002.44;;;18.61;89.86
58245;BME280;44550;43.864;25.986;2023-07-28T01:55:25;101006.03;;;18.59;90.03
58245;BME280;44550;43.864;25.986;2023-07-28T01:59:27;101010.03;;;18.36;88.71
58245;BME280;44550;43.864;25.986;2023-07-28T02:03:27;100999.03;;;18.13;89.93
58245;BME280;44550;43.864;25.986;2023-07-28T02:07:29;101023.56;;;18.21;89.79
58245;BME280;44550;43.864;25.986;2023-07-28T02:11:30;101020.31;;;18.08;90.62
58245;BME280;44550;43.864;25.986;2023-07-28T02:15:32;101030.91;;;18.08;90.40
58245;BME280;44550;43.864;25.986;2023-07-28T02:19:34;101032.66;;;18.07;90.49
58245;BME280;44550;43.864;25.986;2023-07-28T02:23:35;101032.09;;;17.90;90.22
58245;BME280;44550;43.864;25.986;2023-07-28T02:27:36;101026.94;;;17.84;90.71
58245;BME280;44550;43.864;25.986;2023-07-28T02:31:38;101038.66;;;17.68;91.43
58245;BME280;44550;43.864;25.986;2023-07-28T02:35:39;101032.47;;;17.69;90.83
58245;BME280;44550;43.864;25.986;2023-07-28T02:39:40;101038.47;;;17.80;90.88
58245;BME280;44550;43.864;25.986;2023-07-28T02:43:44;101040.38;;;17.72;90.26
58245;BME280;44550;43.864;25.986;2023-07-28T02:47:46;101049.19;;;17.71;90.12
58245;BME280;44550;43.864;25.986;2023-07-28T02:51:47;101047.31;;;17.79;89.19
58245;BME280;44550;43.864;25.986;2023-07-28T02:55:48;101044.91;;;17.65;89.60
58245;BME280;44550;43.864;25.986;2023-07-28T02:59:48;101051.94;;;17.65;89.53
58245;BME280;44550;43.864;25.986;2023-07-28T03:03:51;101057.41;;;17.54;90.39
58245;BME280;44550;43.864;25.986;2023-07-28T03:07:52;101039.31;;;17.29;91.52
58245;BME280;44550;43.864;25.986;2023-07-28T03:11:54;101063.84;;;17.37;91.53
58245;BME280;44550;43.864;25.986;2023-07-28T03:16:02;101058.00;;;17.17;91.44
58245;BME280;44550;43.864;25.986;2023-07-28T03:20:07;101072.75;;;17.32;91.54
58245;BME280;44550;43.864;25.986;2023-07-28T03:24:08;101058.72;;;17.27;90.04
58245;BME280;44550;43.864;25.986;2023-07-28T03:28:09;101075.31;;;17.36;91.04
58245;BME280;44550;43.864;25.986;2023-07-28T03:32:10;101078.94;;;17.31;92.29
58245;BME280;44550;43.864;25.986;2023-07-28T03:36:12;101077.97;;;17.35;92.59
58245;BME280;44550;43.864;25.986;2023-07-28T03:40:15;101083.25;;;17.35;92.41
58245;BME280;44550;43.864;25.986;2023-07-28T03:44:16;101090.13;;;17.47;91.91
58245;BME280;44550;43.864;25.986;2023-07-28T03:48:16;101093.22;;;17.73;91.58
58245;BME280;44550;43.864;25.986;2023-07-28T03:52:19;101087.66;;;18.37;90.08
58245;BME280;44550;43.864;25.986;2023-07-28T03:56:22;101044.91;;;18.97;86.78
58245;BME280;44550;43.864;25.986;2023-07-28T04:00:31;101096.44;;;20.30;80.98
58245;BME280;44550;43.864;25.986;2023-07-28T04:04:40;101096.03;;;20.75;78.66
58245;BME280;44550;43.864;25.986;2023-07-28T04:08:45;101088.81;;;21.38;76.02
58245;BME280;44550;43.864;25.986;2023-07-28T04:12:51;101085.19;;;21.92;73.59
58245;BME280;44550;43.864;25.986;2023-07-28T04:16:54;101074.75;;;21.61;73.00
58245;BME280;44550;43.864;25.986;2023-07-28T04:20:57;101105.84;;;21.85;72.18
58245;BME280;44550;43.864;25.986;2023-07-28T04:25:01;101086.09;;;21.92;71.30
58245;BME280;44550;43.864;25.986;2023-07-28T04:29:02;101090.22;;;22.01;70.87
58245;BME280;44550;43.864;25.986;2023-07-28T04:33:02;101097.84;;;22.37;69.04
58245;BME280;44550;43.864;25.986;2023-07-28T04:37:07;101108.38;;;22.88;65.70
58245;BME280;44550;43.864;25.986;2023-07-28T04:41:11;101106.19;;;23.43;62.34
58245;BME280;44550;43.864;25.986;2023-07-28T04:45:15;101073.06;;;23.27;60.63
58245;BME280;44550;43.864;25.986;2023-07-28T04:49:18;101114.38;;;22.70;63.32
58245;BME280;44550;43.864;25.986;2023-07-28T04:53:27;101103.25;;;23.28;62.06
58245;BME280;44550;43.864;25.986;2023-07-28T04:57:38;101116.72;;;24.31;59.19
58245;BME280;44550;43.864;25.986;2023-07-28T05:02:05;101113.31;;;23.87;57.93
58245;BME280;44550;43.864;25.986;2023-07-28T05:06:44;101113.09;;;23.49;58.85
58245;BME280;44550;43.864;25.986;2023-07-28T05:16:08;101114.88;;;23.05;61.03
58245;BME280;44550;43.864;25.986;2023-07-28T05:20:52;101120.09;;;23.52;59.87
58245;BME280;44550;43.864;25.986;2023-07-28T05:25:42;101124.50;;;23.53;59.49
58245;BME280;44550;43.864;25.986;2023-07-28T05:29:43;101132.78;;;24.52;56.70
58245;BME280;44550;43.864;25.986;2023-07-28T05:33:45;101119.81;;;25.01;52.43
58245;BME280;44550;43.864;25.986;2023-07-28T05:37:47;101116.19;;;24.83;52.93
58245;BME280;44550;43.864;25.986;2023-07-28T05:41:48;101110.47;;;24.12;53.14
58245;BME280;44550;43.864;25.986;2023-07-28T05:45:49;101118.97;;;23.57;54.63
58245;BME280;44550;43.864;25.986;2023-07-28T05:49:51;101125.91;;;22.95;55.14
58245;BME280;44550;43.864;25.986;2023-07-28T05:53:54;101122.00;;;23.26;54.52
58245;BME280;44550;43.864;25.986;2023-07-28T05:57:54;101128.41;;;23.22;55.17
58245;BME280;44550;43.864;25.986;2023-07-28T06:01:55;101122.13;;;23.23;56.26
58245;BME280;44550;43.864;25.986;2023-07-28T06:05:59;101130.91;;;23.49;54.93
58245;BME280;44550;43.864;25.986;2023-07-28T06:10:00;101128.66;;;23.82;53.27
58245;BME280;44550;43.864;25.986;2023-07-28T06:14:00;101133.75;;;23.88;53.75
58245;BME280;44550;43.864;25.986;2023-07-28T06:18:02;101101.28;;;23.55;54.81
58245;BME280;44550;43.864;25.986;2023-07-28T06:22:06;101129.78;;;23.54;54.94
58245;BME280;44550;43.864;25.986;2023-07-28T06:26:10;101085.22;;;23.12;56.69
58245;BME280;44550;43.864;25.986;2023-07-28T06:30:14;101121.25;;;23.68;55.38
58245;BME280;44550;43.864;25.986;2023-07-28T06:34:15;101132.38;;;24.61;52.66
58245;BME280;44550;43.864;25.986;2023-07-28T06:38:17;101120.03;;;24.77;52.74
58245;BME280;44550;43.864;25.986;2023-07-28T06:42:20;101120.91;;;24.97;50.96
58245;BME280;44550;43.864;25.986;2023-07-28T06:46:25;101124.09;;;25.24;48.44
58245;BME280;44550;43.864;25.986;2023-07-28T06:50:31;101122.16;;;24.50;49.41
58245;BME280;44550;43.864;25.986;2023-07-28T06:54:34;101125.69;;;24.90;50.01
58245;BME280;44550;43.864;25.986;2023-07-28T06:58:36;101119.38;;;25.29;50.04
58245;BME280;44550;43.864;25.986;2023-07-28T07:02:40;101121.16;;;25.09;49.59
58245;BME280;44550;43.864;25.986;2023-07-28T07:06:41;101112.72;;;24.81;51.61
58245;BME280;44550;43.864;25.986;2023-07-28T07:10:50;101112.22;;;25.11;50.83
58245;BME280;44550;43.864;25.986;2023-07-28T07:14:51;101121.53;;;24.83;51.06
58245;BME280;44550;43.864;25.986;2023-07-28T07:18:56;101128.06;;;23.96;54.50
58245;BME280;44550;43.864;25.986;2023-07-28T07:22:56;101122.56;;;24.21;51.46
58245;BME280;44550;43.864;25.986;2023-07-28T07:27:00;101128.16;;;24.35;51.80
58245;BME280;44550;43.864;25.986;2023-07-28T07:31:03;101128.06;;;25.15;49.78
58245;BME280;44550;43.864;25.986;2023-07-28T07:35:05;101125.25;;;25.37;49.11
58245;BME280;44550;43.864;25.986;2023-07-28T07:39:09;101132.47;;;25.16;49.47
58245;BME280;44550;43.864;25.986;2023-07-28T07:43:12;101134.72;;;25.81;42.75
58245;BME280;44550;43.864;25.986;2023-07-28T07:47:18;101130.47;;;25.58;40.84
58245;BME280;44550;43.864;25.986;2023-07-28T07:51:18;101129.47;;;25.60;43.98
58245;BME280;44550;43.864;25.986;2023-07-28T07:55:19;101134.75;;;25.43;43.17
58245;BME280;44550;43.864;25.986;2023-07-28T07:59:24;101124.13;;;25.60;42.42
58245;BME280;44550;43.864;25.986;2023-07-28T08:03:28;101117.72;;;25.26;43.95
58245;BME280;44550;43.864;25.986;2023-07-28T08:07:36;101115.41;;;25.38;41.20
58245;BME280;44550;43.864;25.986;2023-07-28T08:11:39;101112.44;;;25.25;40.38
58245;BME280;44550;43.864;25.986;2023-07-28T08:15:42;101120.47;;;25.44;42.86
58245;BME280;44550;43.864;25.986;2023-07-28T08:19:43;101116.09;;;25.77;40.12
58245;BME280;44550;43.864;25.986;2023-07-28T08:23:47;101064.94;;;25.65;41.35
58245;BME280;44550;43.864;25.986;2023-07-28T08:27:51;101110.75;;;25.41;43.02
58245;BME280;44550;43.864;25.986;2023-07-28T08:32:00;101111.03;;;25.54;42.62
58245;BME280;44550;43.864;25.986;2023-07-28T08:36:08;101094.25;;;25.68;39.40
58245;BME280;44550;43.864;25.986;2023-07-28T08:40:09;101107.81;;;25.28;39.09
58245;BME280;44550;43.864;25.986;2023-07-28T08:44:09;101107.09;;;25.25;38.98
58245;BME280;44550;43.864;25.986;2023-07-28T08:48:12;101084.66;;;25.98;39.30
58245;BME280;44550;43.864;25.986;2023-07-28T08:52:16;101096.47;;;25.77;39.50
58245;BME280;44550;43.864;25.986;2023-07-28T08:56:24;101088.44;;;25.77;39.12
58245;BME280;44550;43.864;25.986;2023-07-28T09:00:27;101081.91;;;26.17;38.63
58245;BME280;44550;43.864;25.986;2023-07-28T09:04:33;101095.63;;;26.62;37.65
58245;BME280;44550;43.864;25.986;2023-07-28T09:08:34;101073.16;;;26.14;36.14
58245;BME280;44550;43.864;25.986;2023-07-28T09:12:51;101086.00;;;26.07;34.80
58245;BME280;44550;43.864;25.986;2023-07-28T09:17:14;101079.44;;;25.61;38.49
58245;BME280;44550;43.864;25.986;2023-07-28T09:21:26;101073.06;;;26.15;38.65
58245;BME280;44550;43.864;25.986;2023-07-28T09:25:38;101076.94;;;26.10;37.77
58245;BME280;44550;43.864;25.986;2023-07-28T09:29:40;101066.84;;;26.15;37.20
58245;BME280;44550;43.864;25.986;2023-07-28T09:33:45;101039.88;;;25.66;37.17
58245;BME280;44550;43.864;25.986;2023-07-28T09:37:54;101058.31;;;26.24;37.47
58245;BME280;44550;43.864;25.986;2023-07-28T09:42:02;101050.38;;;26.38;38.29
58245;BME280;44550;43.864;25.986;2023-07-28T09:46:12;101059.06;;;26.92;36.28
58245;BME280;44550;43.864;25.986;2023-07-28T09:50:36;101053.25;;;26.84;35.08
58245;BME280;44550;43.864;25.986;2023-07-28T09:54:56;101046.56;;;26.09;33.16
58245;BME280;44550;43.864;25.986;2023-07-28T10:04:11;101036.78;;;26.59;34.55
58245;BME280;44550;43.864;25.986;2023-07-28T10:08:15;101041.81;;;26.65;30.18
58245;BME280;44550;43.864;25.986;2023-07-28T10:12:26;101030.41;;;26.77;31.70
58245;BME280;44550;43.864;25.986;2023-07-28T10:21:48;101042.66;;;26.65;32.98
58245;BME280;44550;43.864;25.986;2023-07-28T10:32:00;101038.44;;;27.55;32.24
58245;BME280;44550;43.864;25.986;2023-07-28T10:36:32;101020.72;;;27.22;31.82
58245;BME280;44550;43.864;25.986;2023-07-28T10:41:17;101029.13;;;27.16;31.85
58245;BME280;44550;43.864;25.986;2023-07-28T10:45:39;101025.81;;;27.71;29.51
58245;BME280;44550;43.864;25.986;2023-07-28T10:49:53;101003.56;;;27.99;30.11
58245;BME280;44550;43.864;25.986;2023-07-28T10:54:10;100994.31;;;27.89;30.78
58245;BME280;44550;43.864;25.986;2023-07-28T10:58:59;100978.25;;;27.29;31.42
58245;BME280;44550;43.864;25.986;2023-07-28T11:03:42;100992.06;;;27.37;32.71
58245;BME280;44550;43.864;25.986;2023-07-28T11:08:13;100968.09;;;27.48;31.19
58245;BME280;44550;43.864;25.986;2023-07-28T11:12:46;100981.63;;;27.91;31.31
58245;BME280;44550;43.864;25.986;2023-07-28T11:17:31;100988.38;;;28.55;30.01
58245;BME280;44550;43.864;25.986;2023-07-28T11:22:20;100951.31;;;28.32;30.64
58245;BME280;44550;43.864;25.986;2023-07-28T11:27:04;100970.78;;;28.50;30.17
58245;BME280;44550;43.864;25.986;2023-07-28T11:31:25;100964.94;;;28.43;30.58
58245;BME280;44550;43.864;25.986;2023-07-28T11:35:58;100953.53;;;28.81;29.73
58245;BME280;44550;43.864;25.986;2023-07-28T11:40:56;100960.09;;;28.90;29.66
58245;BME280;44550;43.864;25.986;2023-07-28T11:45:57;100944.00;;;28.48;29.31
58245;BME280;44550;43.864;25.986;2023-07-28T11:50:09;100936.03;;;28.74;29.45
58245;BME280;44550;43.864;25.986;2023-07-28T11:58:52;100951.25;;;29.02;28.64
58245;BME280;44550;43.864;25.986;2023-07-28T12:03:10;100931.75;;;28.57;28.64
58245;BME280;44550;43.864;25.986;2023-07-28T12:08:35;100926.53;;;28.95;29.17
58245;BME280;44550;43.864;25.986;2023-07-28T12:12:17;100930.00;;;29.37;28.60
58245;BME280;44550;43.864;25.986;2023-07-28T12:22:10;100915.94;;;29.07;28.95
58245;BME280;44550;43.864;25.986;2023-07-28T12:26:35;100918.25;;;29.51;28.91
58245;BME280;44550;43.864;25.986;2023-07-28T12:30:55;100914.63;;;29.90;28.07
58245;BME280;44550;43.864;25.986;2023-07-28T12:35:30;100914.50;;;29.92;28.31
58245;BME280;44550;43.864;25.986;2023-07-28T12:40:37;100892.28;;;29.88;27.18
58245;BME280;44550;43.864;25.986;2023-07-28T12:45:16;100884.75;;;29.81;26.88
58245;BME280;44550;43.864;25.986;2023-07-28T12:49:30;100879.94;;;30.10;25.59
58245;BME280;44550;43.864;25.986;2023-07-28T12:53:41;100877.81;;;30.02;24.90
58245;BME280;44550;43.864;25.986;2023-07-28T12:58:27;100880.88;;;30.58;25.03
58245;BME280;44550;43.864;25.986;2023-07-28T13:02:48;100872.84;;;30.70;25.26
58245;BME280;44550;43.864;25.986;2023-07-28T13:07:01;100857.63;;;30.69;24.38
58245;BME280;44550;43.864;25.986;2023-07-28T13:11:22;100855.03;;;30.67;24.69
58245;BME280;44550;43.864;25.986;2023-07-28T13:16:07;100845.59;;;30.73;24.99
58245;BME280;44550;43.864;25.986;2023-07-28T13:20:31;100862.84;;;31.18;24.59
58245;BME280;44550;43.864;25.986;2023-07-28T13:35:50;100829.66;;;30.94;24.22
58245;BME280;44550;43.864;25.986;2023-07-28T13:39:59;100839.97;;;30.76;25.12
58245;BME280;44550;43.864;25.986;2023-07-28T13:44:08;100821.31;;;30.73;24.87
58245;BME280;44550;43.864;25.986;2023-07-28T13:48:19;100829.25;;;30.87;24.95
58245;BME280;44550;43.864;25.986;2023-07-28T13:52:26;100815.41;;;30.67;25.07
58245;BME280;44550;43.864;25.986;2023-07-28T13:56:35;100827.47;;;30.75;25.77
58245;BME280;44550;43.864;25.986;2023-07-28T14:00:56;100796.47;;;30.80;24.79
58245;BME280;44550;43.864;25.986;2023-07-28T14:04:59;100807.19;;;30.69;24.82
58245;BME280;44550;43.864;25.986;2023-07-28T14:09:04;100802.69;;;30.70;25.19
58245;BME280;44550;43.864;25.986;2023-07-28T14:13:04;100781.88;;;30.83;24.27
58245;BME280;44550;43.864;25.986;2023-07-28T14:17:05;100800.66;;;30.96;24.78
58245;BME280;44550;43.864;25.986;2023-07-28T14:21:12;100788.25;;;30.82;24.91
58245;BME280;44550;43.864;25.986;2023-07-28T14:25:18;100781.28;;;29.70;25.59
58245;BME280;44550;43.864;25.986;2023-07-28T14:29:18;100787.50;;;30.21;25.35
58245;BME280;44550;43.864;25.986;2023-07-28T14:33:18;100785.53;;;30.82;24.86
58245;BME280;44550;43.864;25.986;2023-07-28T14:37:21;100737.88;;;30.70;24.62
58245;BME280;44550;43.864;25.986;2023-07-28T14:41:29;100773.22;;;31.13;24.09
58245;BME280;44550;43.864;25.986;2023-07-28T14:45:36;100782.34;;;31.34;24.73
58245;BME280;44550;43.864;25.986;2023-07-28T14:49:49;100758.47;;;31.28;23.99
58245;BME280;44550;43.864;25.986;2023-07-28T14:54:04;100745.09;;;31.04;23.31
58245;BME280;44550;43.864;25.986;2023-07-28T15:02:34;100765.00;;;31.48;23.13
58245;BME280;44550;43.864;25.986;2023-07-28T15:06:38;100721.53;;;31.06;23.43
58245;BME280;44550;43.864;25.986;2023-07-28T15:10:42;100738.72;;;31.50;23.07
58245;BME280;44550;43.864;25.986;2023-07-28T15:14:47;100740.06;;;31.67;23.64
58245;BME280;44550;43.864;25.986;2023-07-28T15:18:47;100730.81;;;31.02;23.74
58245;BME280;44550;43.864;25.986;2023-07-28T15:23:01;100736.13;;;31.04;24.21
58245;BME280;44550;43.864;25.986;2023-07-28T15:27:12;100755.19;;;31.47;22.41
58245;BME280;44550;43.864;25.986;2023-07-28T15:31:15;100754.28;;;30.91;23.26
58245;BME280;44550;43.864;25.986;2023-07-28T15:35:49;100711.19;;;31.11;21.99
58245;BME280;44550;43.864;25.986;2023-07-28T15:39:53;100739.19;;;31.55;22.41
58245;BME280;44550;43.864;25.986;2023-07-28T15:43:58;100707.13;;;31.62;22.25
58245;BME280;44550;43.864;25.986;2023-07-28T15:48:04;100732.63;;;32.35;22.00
58245;BME280;44550;43.864;25.986;2023-07-28T15:52:05;100743.63;;;32.22;21.49
58245;BME280;44550;43.864;25.986;2023-07-28T15:56:12;100743.44;;;31.92;21.82
58245;BME280;44550;43.864;25.986;2023-07-28T16:00:15;100738.41;;;32.31;21.56
58245;BME280;44550;43.864;25.986;2023-07-28T16:04:21;100737.03;;;32.36;20.74
58245;BME280;44550;43.864;25.986;2023-07-28T16:08:20;100733.41;;;32.15;20.79
58245;BME280;44550;43.864;25.986;2023-07-28T16:12:21;100733.84;;;32.31;21.08
58245;BME280;44550;43.864;25.986;2023-07-28T16:16:25;100739.41;;;32.29;20.83
58245;BME280;44550;43.864;25.986;2023-07-28T16:20:28;100736.59;;;32.20;20.95
58245;BME280;44550;43.864;25.986;2023-07-28T16:24:28;100738.81;;;31.82;21.18
58245;BME280;44550;43.864;25.986;2023-07-28T16:28:31;100741.69;;;32.13;21.06
58245;BME280;44550;43.864;25.986;2023-07-28T16:32:36;100735.16;;;32.16;20.98
58245;BME280;44550;43.864;25.986;2023-07-28T16:37:21;100727.97;;;32.26;20.06
58245;BME280;44550;43.864;25.986;2023-07-28T16:41:22;100727.06;;;32.37;20.93
58245;BME280;44550;43.864;25.986;2023-07-28T16:45:21;100733.22;;;32.07;21.39
58245;BME280;44550;43.864;25.986;2023-07-28T16:49:21;100734.50;;;31.69;21.21
58245;BME280;44550;43.864;25.986;2023-07-28T16:53:24;100714.72;;;31.68;21.61
58245;BME280;44550;43.864;25.986;2023-07-28T16:57:23;100723.91;;;31.88;21.32
58245;BME280;44550;43.864;25.986;2023-07-28T17:01:23;100733.81;;;32.10;20.95
58245;BME280;44550;43.864;25.986;2023-07-28T17:05:23;100715.38;;;32.04;21.70
58245;BME280;44550;43.864;25.986;2023-07-28T17:09:26;100737.38;;;32.11;21.25
58245;BME280;44550;43.864;25.986;2023-07-28T17:13:26;100744.31;;;31.81;21.67
58245;BME280;44550;43.864;25.986;2023-07-28T17:17:26;100724.56;;;31.58;22.02
58245;BME280;44550;43.864;25.986;2023-07-28T17:21:26;100722.13;;;31.55;22.35
58245;BME280;44550;43.864;25.986;2023-07-28T17:25:29;100732.22;;;31.42;22.77
58245;BME280;44550;43.864;25.986;2023-07-28T17:29:36;100745.19;;;31.25;22.97
58245;BME280;44550;43.864;25.986;2023-07-28T17:33:36;100743.13;;;31.06;23.21
58245;BME280;44550;43.864;25.986;2023-07-28T17:37:36;100744.56;;;30.77;23.33
58245;BME280;44550;43.864;25.986;2023-07-28T17:41:39;100715.41;;;30.58;23.97
58245;BME280;44550;43.864;25.986;2023-07-28T17:45:39;100734.69;;;30.76;23.85
58245;BME280;44550;43.864;25.986;2023-07-28T17:49:56;100745.72;;;30.73;23.69
58245;BME280;44550;43.864;25.986;2023-07-28T17:54:37;100734.09;;;30.37;24.28
58245;BME280;44550;43.864;25.986;2023-07-28T17:58:41;100715.09;;;30.14;24.65
58245;BME280;44550;43.864;25.986;2023-07-28T18:02:42;100735.75;;;30.03;25.30
58245;BME280;44550;43.864;25.986;2023-07-28T18:06:47;100736.16;;;29.85;25.74
58245;BME280;44550;43.864;25.986;2023-07-28T18:10:56;100750.13;;;29.66;26.03
58245;BME280;44550;43.864;25.986;2023-07-28T18:15:10;100752.53;;;29.33;26.84
58245;BME280;44550;43.864;25.986;2023-07-28T18:19:10;100713.66;;;28.86;28.92
58245;BME280;44550;43.864;25.986;2023-07-28T18:23:16;100751.84;;;28.65;28.82
58245;BME280;44550;43.864;25.986;2023-07-28T18:27:18;100753.97;;;28.47;28.91
58245;BME280;44550;43.864;25.986;2023-07-28T18:31:24;100749.81;;;28.29;29.43
58245;BME280;44550;43.864;25.986;2023-07-28T18:35:24;100755.19;;;28.02;30.22
58245;BME280;44550;43.864;25.986;2023-07-28T18:39:27;100755.94;;;27.77;30.71
58245;BME280;44550;43.864;25.986;2023-07-28T18:43:28;100755.06;;;27.62;31.33
58245;BME280;44550;43.864;25.986;2023-07-28T18:47:35;100759.19;;;27.53;31.70
58245;BME280;44550;43.864;25.986;2023-07-28T18:51:59;100740.31;;;27.40;31.55
58245;BME280;44550;43.864;25.986;2023-07-28T18:56:01;100762.09;;;27.36;32.82
58245;BME280;44550;43.864;25.986;2023-07-28T19:00:09;100769.06;;;27.10;33.29
58245;BME280;44550;43.864;25.986;2023-07-28T19:04:28;100762.13;;;26.91;33.39
58245;BME280;44550;43.864;25.986;2023-07-28T19:08:31;100764.25;;;26.86;33.45
58245;BME280;44550;43.864;25.986;2023-07-28T19:12:36;100752.06;;;26.81;33.37
58245;BME280;44550;43.864;25.986;2023-07-28T19:16:36;100754.75;;;26.95;33.04
58245;BME280;44550;43.864;25.986;2023-07-28T19:20:42;100769.06;;;26.96;32.96
58245;BME280;44550;43.864;25.986;2023-07-28T19:24:44;100767.59;;;26.90;33.09
58245;BME280;44550;43.864;25.986;2023-07-28T19:28:44;100762.66;;;26.68;33.56
58245;BME280;44550;43.864;25.986;2023-07-28T19:32:52;100741.06;;;26.55;33.04
58245;BME280;44550;43.864;25.986;2023-07-28T19:36:55;100755.56;;;26.67;33.13
58245;BME280;44550;43.864;25.986;2023-07-28T19:40:58;100766.25;;;26.83;32.58
58245;BME280;44550;43.864;25.986;2023-07-28T19:45:00;100758.25;;;26.67;32.38
58245;BME280;44550;43.864;25.986;2023-07-28T19:49:01;100771.97;;;26.62;32.98
58245;BME280;44550;43.864;25.986;2023-07-28T19:53:03;100776.31;;;26.49;33.61
58245;BME280;44550;43.864;25.986;2023-07-28T19:57:05;100766.75;;;26.29;33.73
58245;BME280;44550;43.864;25.986;2023-07-28T20:01:05;100776.22;;;26.51;33.40
58245;BME280;44550;43.864;25.986;2023-07-28T20:05:06;100777.69;;;26.56;33.14
58245;BME280;44550;43.864;25.986;2023-07-28T20:09:09;100771.63;;;26.53;32.89
58245;BME280;44550;43.864;25.986;2023-07-28T20:13:08;100737.34;;;26.42;32.81
58245;BME280;44550;43.864;25.986;2023-07-28T20:17:08;100763.34;;;26.71;32.49
58245;BME280;44550;43.864;25.986;2023-07-28T20:21:10;100783.97;;;26.85;32.34
58245;BME280;44550;43.864;25.986;2023-07-28T20:25:15;100745.88;;;26.64;31.72
58245;BME280;44550;43.864;25.986;2023-07-28T20:29:15;100759.59;;;26.60;31.75
58245;BME280;44550;43.864;25.986;2023-07-28T20:33:19;100760.63;;;26.41;32.37
58245;BME280;44550;43.864;25.986;2023-07-28T20:37:20;100781.25;;;26.25;33.19
58245;BME280;44550;43.864;25.986;2023-07-28T20:41:21;100790.59;;;26.18;33.16
58245;BME280;44550;43.864;25.986;2023-07-28T20:45:22;100774.63;;;26.00;33.17
58245;BME280;44550;43.864;25.986;2023-07-28T20:49:25;100789.41;;;26.08;33.33
58245;BME280;44550;43.864;25.986;2023-07-28T20:53:25;100762.09;;;26.01;33.12
58245;BME280;44550;43.864;25.986;2023-07-28T20:57:32;100789.38;;;26.39;32.67
58245;BME280;44550;43.864;25.986;2023-07-28T21:01:32;100792.13;;;26.54;32.52
58245;BME280;44550;43.864;25.986;2023-07-28T21:05:34;100758.31;;;26.51;31.58
58245;BME280;44550;43.864;25.986;2023-07-28T21:09:37;100789.13;;;26.74;31.80
58245;BME280;44550;43.864;25.986;2023-07-28T21:13:39;100754.78;;;26.65;31.59
58245;BME280;44550;43.864;25.986;2023-07-28T21:17:40;100795.41;;;26.89;31.82
58245;BME280;44550;43.864;25.986;2023-07-28T21:21:41;100786.66;;;26.55;32.53
58245;BME280;44550;43.864;25.986;2023-07-28T21:25:43;100802.88;;;26.22;34.03
58245;BME280;44550;43.864;25.986;2023-07-28T21:29:57;100798.75;;;26.00;34.26
58245;BME280;44550;43.864;25.986;2023-07-28T21:34:01;100770.41;;;25.81;35.53
58245;BME280;44550;43.864;25.986;2023-07-28T21:38:03;100779.34;;;25.64;36.94
58245;BME280;44550;43.864;25.986;2023-07-28T21:42:18;100776.31;;;25.54;37.63
58245;BME280;44550;43.864;25.986;2023-07-28T21:46:24;100783.34;;;25.39;37.72
58245;BME280;44550;43.864;25.986;2023-07-28T21:50:26;100788.59;;;25.25;38.00
58245;BME280;44550;43.864;25.986;2023-07-28T21:54:30;100790.16;;;25.29;38.28
58245;BME280;44550;43.864;25.986;2023-07-28T21:58:36;100747.22;;;24.97;39.02
58245;BME280;44550;43.864;25.986;2023-07-28T22:02:42;100793.69;;;25.29;38.94
58245;BME280;44550;43.864;25.986;2023-07-28T22:06:43;100788.09;;;25.34;39.23